createdAt,value
2019-03-29T00:01:56.428Z,48.20
2019-03-29T00:04:22.598Z,43.33
2019-03-29T00:06:48.758Z,41.55
2019-03-29T00:09:14.901Z,49.80
2019-03-29T00:11:41.023Z,55.65
2019-03-29T00:14:07.267Z,51.48
2019-03-29T00:16:33.436Z,59.27
2019-03-29T00:18:59.571Z,52.85
2019-03-29T00:21:25.699Z,51.92
2019-03-29T00:24:05.957Z,57.00
2019-03-29T00:26:20.016Z,54.35
2019-03-29T00:28:46.157Z,50.20
2019-03-29T00:31:12.330Z,53.73
2019-03-29T00:33:38.455Z,55.88
2019-03-29T00:36:04.601Z,51.23
2019-03-29T00:38:30.837Z,69.30
2019-03-29T00:40:57.024Z,69.27
2019-03-29T00:43:23.062Z,58.00
2019-03-29T00:45:49.622Z,52.08
2019-03-29T00:48:15.804Z,60.85
2019-03-29T00:50:41.930Z,68.90
2019-03-29T00:53:08.951Z,51.95
2019-03-29T00:55:35.325Z,46.37
2019-03-29T00:58:01.451Z,47.85
2019-03-29T01:00:31.134Z,43.60
2019-03-29T01:02:55.995Z,46.90
2019-03-29T01:05:22.158Z,48.90
2019-03-29T01:07:48.283Z,39.50
2019-03-29T01:10:14.440Z,60.28
2019-03-29T01:12:40.665Z,58.40
2019-03-29T01:15:08.985Z,49.85
2019-03-29T01:17:35.291Z,61.95
2019-03-29T01:20:02.157Z,61.33
2019-03-29T01:22:28.281Z,51.33
2019-03-29T01:24:54.417Z,57.08
2019-03-29T01:27:20.491Z,53.50
2019-03-29T01:29:46.602Z,45.58
2019-03-29T01:32:12.774Z,45.65
2019-03-29T01:34:38.900Z,46.15
2019-03-29T01:37:05.105Z,56.08
2019-03-29T01:39:31.239Z,46.98
2019-03-29T01:41:57.366Z,53.28
2019-03-29T01:44:23.496Z,58.58
2019-03-29T01:46:49.622Z,56.15
2019-03-29T01:49:16.852Z,46.70
2019-03-29T01:51:42.994Z,47.67
2019-03-29T01:54:09.152Z,55.60
2019-03-29T01:56:35.283Z,46.13
2019-03-29T01:59:01.436Z,46.63
2019-03-29T02:01:28.383Z,39.00
2019-03-29T02:03:54.700Z,34.53
2019-03-29T02:06:20.929Z,46.77
2019-03-29T02:08:47.113Z,42.50
2019-03-29T02:11:13.380Z,41.30
2019-03-29T02:13:40.380Z,51.13
2019-03-29T02:16:06.535Z,40.80
2019-03-29T02:18:32.674Z,42.60
2019-03-29T02:20:58.822Z,43.48
2019-03-29T02:23:24.972Z,47.27
2019-03-29T02:25:51.092Z,45.28
2019-03-29T02:28:17.258Z,37.10
2019-03-29T02:30:43.504Z,41.65
2019-03-29T02:33:09.622Z,41.80
2019-03-29T02:35:35.747Z,37.30
2019-03-29T02:38:01.898Z,41.80
2019-03-29T02:40:28.038Z,40.03
2019-03-29T02:42:54.165Z,43.28
2019-03-29T02:45:20.217Z,38.33
2019-03-29T02:47:47.760Z,44.60
2019-03-29T02:50:14.498Z,38.73
2019-03-29T02:52:40.654Z,42.30
2019-03-29T02:55:07.551Z,45.28
2019-03-29T02:57:33.680Z,45.83
2019-03-29T02:59:59.797Z,38.90
2019-03-29T03:02:26.699Z,38.75
2019-03-29T03:04:53.048Z,33.78
2019-03-29T03:07:19.192Z,44.38
2019-03-29T03:09:45.365Z,40.67
2019-03-29T03:12:11.605Z,39.30
2019-03-29T03:14:37.763Z,39.08
2019-03-29T03:17:03.894Z,47.67
2019-03-29T03:19:30.030Z,52.38
2019-03-29T03:22:03.036Z,46.88
2019-03-29T03:24:26.607Z,41.13
2019-03-29T03:26:52.731Z,40.20
2019-03-29T03:29:18.824Z,42.48
2019-03-29T03:31:45.043Z,43.28
2019-03-29T03:34:11.225Z,41.30
2019-03-29T03:36:37.253Z,44.35
2019-03-29T03:39:06.111Z,45.85
2019-03-29T03:41:32.260Z,43.28
2019-03-29T03:43:58.491Z,51.42
2019-03-29T03:46:24.648Z,47.15
2019-03-29T03:48:50.771Z,45.58
2019-03-29T03:51:17.135Z,47.58
2019-03-29T03:53:43.420Z,46.60
2019-03-29T03:56:10.626Z,57.50
2019-03-29T03:58:37.816Z,46.80
2019-03-29T04:01:04.037Z,52.00
2019-03-29T04:03:30.174Z,55.15
2019-03-29T04:05:56.657Z,48.98
2019-03-29T04:08:22.811Z,52.83
2019-03-29T04:10:48.932Z,51.48
2019-03-29T04:13:15.077Z,55.45
2019-03-29T04:15:41.284Z,51.23
2019-03-29T04:18:07.440Z,56.75
2019-03-29T04:20:33.471Z,57.85
2019-03-29T04:22:59.502Z,61.15
2019-03-29T04:25:25.645Z,50.75
2019-03-29T04:27:51.798Z,49.93
2019-03-29T04:30:17.839Z,59.23
2019-03-29T04:32:43.979Z,49.33
2019-03-29T04:35:10.096Z,46.70
2019-03-29T04:37:36.134Z,44.75
2019-03-29T04:40:07.952Z,41.65
2019-03-29T04:44:59.837Z,43.38
2019-03-29T04:47:25.626Z,54.70
2019-03-29T04:49:51.909Z,44.45
2019-03-29T04:52:18.036Z,52.95
2019-03-29T04:54:44.321Z,44.27
2019-03-29T04:57:10.287Z,46.28
2019-03-29T04:59:36.442Z,51.30
2019-03-29T05:02:02.765Z,51.75
2019-03-29T05:04:28.923Z,49.18
2019-03-29T05:06:55.086Z,42.55
2019-03-29T05:09:21.212Z,42.78
2019-03-29T05:11:47.346Z,48.87
2019-03-29T05:14:13.488Z,50.08
2019-03-29T05:16:39.622Z,52.03
2019-03-29T05:19:05.813Z,55.40
2019-03-29T05:21:31.930Z,51.23
2019-03-29T05:23:58.066Z,50.45
2019-03-29T05:26:25.573Z,50.45
2019-03-29T05:28:51.872Z,51.85
2019-03-29T05:31:17.919Z,60.43
2019-03-29T05:33:46.488Z,52.65
2019-03-29T05:36:12.755Z,54.90
2019-03-29T05:38:38.800Z,48.78
2019-03-29T05:41:05.037Z,58.13
2019-03-29T05:43:31.203Z,59.00
2019-03-29T05:45:57.502Z,63.90
2019-03-29T05:48:23.884Z,57.13
2019-03-29T05:50:49.959Z,53.58
2019-03-29T05:53:16.290Z,47.13
2019-03-29T05:55:48.110Z,53.87
2019-03-29T05:58:13.104Z,59.65
2019-03-29T06:00:39.408Z,56.18
2019-03-29T06:03:05.554Z,47.08
2019-03-29T06:05:31.740Z,46.35
2019-03-29T06:07:58.026Z,63.20
2019-03-29T06:10:24.241Z,59.27
2019-03-29T06:12:50.477Z,56.88
2019-03-29T06:15:16.622Z,48.95
2019-03-29T06:17:48.854Z,46.95
2019-03-29T06:20:11.724Z,57.65
2019-03-29T06:22:37.850Z,67.62
2019-03-29T06:25:06.186Z,72.90
2019-03-29T06:27:32.434Z,58.40
2019-03-29T06:29:58.580Z,50.28
2019-03-29T06:32:24.676Z,45.73
2019-03-29T06:34:50.885Z,61.92
2019-03-29T06:37:19.318Z,68.00
2019-03-29T06:39:46.865Z,49.23
2019-03-29T06:42:14.353Z,57.78
2019-03-29T06:44:40.464Z,50.73
2019-03-29T06:47:06.526Z,42.00
2019-03-29T06:49:32.658Z,49.35
2019-03-29T06:51:58.778Z,44.18
2019-03-29T06:54:25.086Z,48.35
2019-03-29T06:56:51.371Z,39.90
2019-03-29T06:59:17.398Z,42.13
2019-03-29T07:01:46.345Z,57.53
2019-03-29T07:04:13.427Z,45.38
2019-03-29T07:06:39.551Z,44.93
2019-03-29T07:09:05.739Z,48.98
2019-03-29T07:11:31.767Z,41.98
2019-03-29T07:13:58.265Z,45.23
2019-03-29T07:16:24.424Z,44.65
2019-03-29T07:18:50.469Z,45.30
2019-03-29T07:21:21.822Z,41.18
2019-03-29T07:23:44.635Z,39.63
2019-03-29T07:26:10.756Z,41.90
2019-03-29T07:28:36.884Z,45.00
2019-03-29T07:31:03.067Z,43.10
2019-03-29T07:33:29.746Z,46.45
2019-03-29T07:35:55.951Z,44.63
2019-03-29T07:38:22.132Z,43.17
2019-03-29T07:40:48.274Z,43.60
2019-03-29T07:43:14.431Z,44.55
2019-03-29T07:45:43.430Z,45.12
2019-03-29T07:48:09.711Z,47.67
2019-03-29T07:50:37.143Z,42.85
2019-03-29T07:53:06.194Z,47.62
2019-03-29T07:55:32.441Z,44.23
2019-03-29T07:57:58.811Z,46.23
2019-03-29T08:00:25.045Z,40.52
2019-03-29T08:02:51.163Z,49.70
2019-03-29T08:05:18.097Z,52.53
2019-03-29T08:07:45.919Z,50.92
2019-03-29T08:10:24.178Z,44.73
2019-03-29T08:15:09.747Z,46.95
2019-03-29T08:17:37.985Z,50.50
2019-03-29T08:20:36.343Z,47.85
2019-03-29T08:25:24.666Z,44.40
2019-03-29T08:28:21.251Z,46.53
2019-03-29T08:30:34.705Z,43.08
2019-03-29T08:33:13.130Z,45.98
2019-03-29T08:35:39.419Z,38.20
2019-03-29T08:38:06.376Z,35.43
2019-03-29T08:40:32.791Z,26.57
2019-03-29T08:42:59.036Z,34.63
2019-03-29T08:45:27.137Z,31.02
2019-03-29T08:47:53.422Z,29.07
2019-03-29T08:50:19.673Z,33.45
2019-03-29T08:52:53.105Z,27.82
2019-03-29T08:55:19.251Z,26.62
2019-03-29T08:57:45.539Z,23.05
2019-03-29T09:00:11.966Z,19.07
2019-03-29T09:02:38.283Z,21.80
2019-03-29T09:05:04.633Z,21.15
2019-03-29T09:07:44.054Z,22.15
2019-03-29T09:09:59.016Z,19.42
2019-03-29T09:12:25.170Z,19.35
2019-03-29T09:14:51.193Z,24.32
2019-03-29T09:17:17.404Z,23.70
2019-03-29T09:19:43.510Z,19.12
2019-03-29T09:22:09.740Z,21.75
2019-03-29T09:24:35.883Z,26.00
2019-03-29T09:27:02.003Z,19.40
2019-03-29T09:29:28.227Z,19.15
2019-03-29T09:31:54.590Z,21.52
2019-03-29T09:34:23.501Z,17.02
2019-03-29T09:36:49.694Z,21.52
2019-03-29T09:39:15.861Z,19.82
2019-03-29T09:41:42.077Z,23.55
2019-03-29T09:44:08.393Z,19.95
2019-03-29T09:46:34.711Z,20.35
2019-03-29T09:49:00.871Z,20.90
2019-03-29T09:51:27.029Z,26.62
2019-03-29T09:53:53.178Z,26.25
2019-03-29T09:56:21.423Z,23.80
2019-03-29T09:58:47.724Z,22.17
2019-03-29T10:01:22.950Z,21.05
2019-03-29T10:03:51.342Z,27.07
2019-03-29T10:06:17.473Z,21.15
2019-03-29T10:08:43.645Z,21.62
2019-03-29T10:11:09.880Z,22.15
2019-03-29T10:13:36.003Z,21.17
2019-03-29T10:16:02.156Z,20.30
2019-03-29T10:18:34.578Z,20.90
2019-03-29T10:21:00.885Z,24.02
2019-03-29T10:23:32.978Z,25.60
2019-03-29T10:26:06.074Z,25.48
2019-03-29T10:28:32.570Z,21.40
2019-03-29T10:30:58.747Z,20.75
2019-03-29T10:33:25.061Z,21.37
2019-03-29T10:35:52.722Z,24.40
2019-03-29T10:38:19.216Z,25.48
2019-03-29T10:40:45.353Z,21.97
2019-03-29T10:43:11.465Z,21.55
2019-03-29T10:45:40.283Z,23.73
2019-03-29T10:48:05.643Z,20.62
2019-03-29T10:50:31.774Z,21.17
2019-03-29T10:52:57.905Z,23.87
2019-03-29T10:55:26.075Z,23.83
2019-03-29T10:57:55.373Z,26.40
2019-03-29T11:02:49.851Z,21.77
2019-03-29T11:05:16.097Z,24.75
2019-03-29T11:07:42.336Z,22.10
2019-03-29T11:10:12.187Z,27.17
2019-03-29T11:12:38.407Z,24.92
2019-03-29T11:15:06.753Z,28.77
2019-03-29T11:17:33.239Z,22.80
2019-03-29T11:19:59.369Z,27.50
2019-03-29T11:22:25.584Z,22.95
2019-03-29T11:24:51.712Z,20.97
2019-03-29T11:27:17.981Z,26.52
2019-03-29T11:29:49.213Z,21.52
2019-03-29T11:32:17.881Z,24.98
2019-03-29T11:34:44.001Z,19.37
2019-03-29T11:37:10.321Z,20.43
2019-03-29T11:39:36.559Z,23.27
2019-03-29T11:42:03.662Z,26.20
2019-03-29T11:44:30.360Z,18.37
2019-03-29T11:46:56.684Z,21.30
2019-03-29T11:49:22.702Z,24.27
2019-03-29T11:51:48.823Z,19.82
2019-03-29T11:54:14.979Z,22.15
2019-03-29T11:56:41.101Z,18.80
2019-03-29T11:59:07.270Z,21.10
2019-03-29T12:01:33.455Z,20.70
2019-03-29T12:03:59.679Z,21.50
2019-03-29T12:06:25.807Z,20.00
2019-03-29T12:08:51.944Z,24.77
2019-03-29T12:11:18.076Z,22.37
2019-03-29T12:13:44.648Z,22.95
2019-03-29T12:16:10.777Z,22.00
2019-03-29T12:18:38.432Z,21.57
2019-03-29T12:21:04.556Z,20.25
2019-03-29T12:23:30.758Z,23.87
2019-03-29T12:25:56.876Z,23.20
2019-03-29T12:28:22.999Z,33.00
2019-03-29T12:30:49.223Z,24.25
2019-03-29T12:33:15.231Z,26.57
2019-03-29T12:35:41.418Z,18.23
2019-03-29T12:38:07.552Z,24.12
2019-03-29T12:40:33.602Z,25.43
2019-03-29T12:42:59.730Z,23.52
2019-03-29T12:45:25.900Z,21.35
2019-03-29T12:47:51.987Z,21.05
2019-03-29T12:50:18.152Z,22.27
2019-03-29T12:52:44.292Z,22.27
2019-03-29T12:55:10.432Z,25.90
2019-03-29T12:57:38.885Z,17.70
2019-03-29T13:00:06.298Z,23.87
2019-03-29T13:02:34.492Z,15.32
2019-03-29T13:05:00.466Z,17.60
2019-03-29T13:07:26.513Z,16.90
2019-03-29T13:09:53.199Z,18.42
2019-03-29T13:12:19.330Z,26.17
2019-03-29T13:14:45.472Z,18.65
2019-03-29T13:17:11.625Z,19.45
2019-03-29T13:19:38.822Z,19.70
2019-03-29T13:22:05.907Z,19.02
2019-03-29T13:24:31.927Z,18.65
2019-03-29T13:26:57.944Z,24.37
2019-03-29T13:29:24.127Z,18.25
2019-03-29T13:31:50.233Z,16.93
2019-03-29T13:34:16.368Z,18.90
2019-03-29T13:36:42.421Z,19.30
2019-03-29T13:39:08.965Z,24.67
2019-03-29T13:41:35.090Z,20.55
2019-03-29T13:44:01.217Z,21.05
2019-03-29T13:46:27.350Z,17.27
2019-03-29T13:48:53.371Z,19.90
2019-03-29T13:51:19.506Z,23.27
2019-03-29T13:53:45.523Z,19.10
2019-03-29T13:56:11.717Z,22.27
2019-03-29T13:58:37.845Z,15.58
2019-03-29T14:01:04.001Z,24.82
2019-03-29T14:03:30.045Z,20.05
2019-03-29T14:05:56.168Z,29.50
2019-03-29T14:08:22.295Z,26.60
2019-03-29T14:10:48.411Z,21.48
2019-03-29T14:13:14.565Z,26.50
2019-03-29T14:15:40.592Z,26.20
2019-03-29T14:18:06.751Z,22.05
2019-03-29T14:20:33.019Z,22.40
2019-03-29T14:23:00.467Z,21.62
2019-03-29T14:25:26.583Z,24.15
2019-03-29T14:27:52.627Z,25.57
2019-03-29T14:30:18.873Z,26.10
2019-03-29T14:32:45.453Z,26.17
2019-03-29T14:35:11.587Z,24.50
2019-03-29T14:37:37.610Z,27.62
2019-03-29T14:40:06.164Z,26.48
2019-03-29T14:42:33.171Z,26.85
2019-03-29T14:44:59.324Z,32.88
2019-03-29T14:47:38.154Z,25.97
2019-03-29T14:49:53.379Z,25.30
2019-03-29T14:52:19.512Z,30.82
2019-03-29T14:54:45.546Z,35.58
2019-03-29T14:57:11.590Z,38.40
2019-03-29T14:59:37.724Z,29.65
2019-03-29T15:02:03.955Z,30.52
2019-03-29T15:04:30.087Z,34.15
2019-03-29T15:06:56.206Z,38.85
2019-03-29T15:09:22.386Z,37.28
2019-03-29T15:11:48.471Z,41.50
2019-03-29T15:14:14.512Z,35.52
2019-03-29T15:16:40.629Z,62.48
2019-03-29T15:19:09.054Z,44.73
2019-03-29T15:21:35.289Z,55.43
2019-03-29T15:24:01.422Z,46.30
2019-03-29T15:26:27.545Z,50.33
2019-03-29T15:28:53.662Z,44.75
2019-03-29T15:31:19.814Z,48.13
2019-03-29T15:33:45.963Z,43.68
2019-03-29T15:36:12.179Z,62.98
2019-03-29T15:38:38.290Z,170.72
2019-03-29T15:41:04.504Z,69.37
2019-03-29T15:43:30.640Z,109.50
2019-03-29T15:45:56.760Z,191.55
2019-03-29T15:48:22.886Z,91.25
2019-03-29T15:50:49.016Z,79.47
2019-03-29T15:53:15.144Z,62.38
2019-03-29T15:55:41.270Z,77.87
2019-03-29T15:58:07.360Z,64.85
2019-03-29T16:00:33.485Z,99.83
2019-03-29T16:02:59.600Z,63.58
2019-03-29T16:05:25.842Z,103.65
2019-03-29T16:07:51.974Z,63.35
2019-03-29T16:10:18.130Z,94.30
2019-03-29T16:12:44.264Z,50.25
2019-03-29T16:15:10.395Z,46.80
2019-03-29T16:17:36.517Z,41.98
2019-03-29T16:20:04.273Z,74.50
2019-03-29T16:22:30.400Z,55.45
2019-03-29T16:24:56.559Z,42.58
2019-03-29T16:27:25.102Z,44.15
2019-03-29T16:29:50.651Z,46.45
2019-03-29T16:32:16.772Z,55.55
2019-03-29T16:34:46.962Z,58.50
2019-03-29T16:37:13.353Z,51.60
2019-03-29T16:39:39.643Z,48.78
2019-03-29T16:42:05.796Z,41.63
2019-03-29T16:44:32.061Z,74.65
2019-03-29T16:46:58.338Z,62.03
2019-03-29T16:49:26.453Z,73.97
2019-03-29T16:51:52.700Z,63.45
2019-03-29T16:54:19.403Z,55.30
2019-03-29T16:56:45.610Z,46.50
2019-03-29T16:59:11.833Z,52.75
2019-03-29T17:01:37.861Z,52.17
2019-03-29T17:04:04.015Z,48.98
2019-03-29T17:06:31.747Z,57.03
2019-03-29T17:08:57.969Z,52.48
2019-03-29T17:11:24.283Z,49.27
2019-03-29T17:13:50.466Z,43.08
2019-03-29T17:16:29.433Z,50.95
2019-03-29T17:18:46.307Z,46.15
2019-03-29T17:21:12.635Z,43.98
2019-03-29T17:23:40.334Z,44.80
2019-03-29T17:26:11.906Z,42.65
2019-03-29T17:28:38.135Z,51.40
2019-03-29T17:31:06.246Z,54.58
2019-03-29T17:33:32.386Z,57.00
2019-03-29T17:35:58.653Z,64.32
2019-03-29T17:38:24.803Z,60.08
2019-03-29T17:40:50.927Z,52.30
2019-03-29T17:43:17.289Z,60.25
2019-03-29T17:45:43.571Z,43.42
2019-03-29T17:48:09.870Z,50.73
2019-03-29T17:50:35.993Z,51.10
2019-03-29T17:53:02.117Z,45.15
2019-03-29T17:55:31.566Z,55.28
2019-03-29T17:57:56.488Z,55.48
2019-03-29T18:00:27.208Z,67.62
2019-03-29T18:02:53.504Z,70.28
2019-03-29T18:05:19.764Z,73.85
2019-03-29T18:07:45.902Z,57.35
2019-03-29T18:10:12.292Z,63.85
2019-03-29T18:12:42.915Z,45.28
2019-03-29T18:15:09.534Z,50.12
2019-03-29T18:17:35.635Z,48.38
2019-03-29T18:20:03.388Z,81.67
2019-03-29T18:22:31.563Z,50.10
2019-03-29T18:25:00.908Z,57.43
2019-03-29T18:29:53.130Z,41.40
2019-03-29T18:32:19.377Z,44.10
2019-03-29T18:34:45.534Z,48.38
2019-03-29T18:37:13.017Z,66.87
2019-03-29T18:39:39.279Z,44.70
2019-03-29T18:42:05.483Z,54.08
2019-03-29T18:44:31.620Z,49.70
2019-03-29T18:46:57.856Z,48.83
2019-03-29T18:49:23.999Z,268.65
2019-03-29T18:51:50.227Z,102.65
2019-03-29T18:54:16.605Z,95.00
2019-03-29T18:56:42.870Z,168.95
2019-03-29T18:59:09.157Z,93.42
2019-03-29T19:01:35.411Z,48.13
2019-03-29T19:04:06.029Z,61.02
2019-03-29T19:06:29.826Z,86.97
2019-03-29T19:08:58.067Z,106.30
2019-03-29T19:11:26.243Z,119.87
2019-03-29T19:13:52.543Z,149.68
2019-03-29T19:16:18.799Z,184.60
2019-03-29T19:18:44.947Z,101.20
2019-03-29T19:21:11.273Z,122.87
2019-03-29T19:23:37.604Z,138.92
2019-03-29T19:26:06.783Z,80.53
2019-03-29T19:28:42.052Z,115.05
2019-03-29T19:31:06.587Z,83.12
2019-03-29T19:33:32.877Z,68.37
2019-03-29T19:36:02.903Z,50.70
2019-03-29T19:38:41.014Z,59.83
2019-03-29T19:41:07.148Z,73.72
2019-03-29T19:43:33.427Z,88.50
2019-03-29T19:45:59.553Z,84.75
2019-03-29T19:48:25.861Z,88.20
2019-03-29T19:50:51.998Z,110.10
2019-03-29T19:53:18.154Z,109.52
2019-03-29T19:55:47.189Z,76.15
2019-03-29T19:58:13.412Z,101.85
2019-03-29T20:00:40.350Z,82.35
2019-03-29T20:03:06.508Z,95.03
2019-03-29T20:05:32.637Z,94.47
2019-03-29T20:08:10.976Z,79.67
2019-03-29T20:10:37.185Z,81.57
2019-03-29T20:13:03.470Z,92.15
2019-03-29T20:15:29.786Z,72.78
2019-03-29T20:17:55.995Z,81.10
2019-03-29T20:20:29.135Z,78.85
2019-03-29T20:22:56.276Z,91.12
2019-03-29T20:25:23.212Z,59.88
2019-03-29T20:27:49.492Z,51.70
2019-03-29T20:30:16.054Z,54.30
2019-03-29T20:32:43.245Z,49.95
2019-03-29T20:35:09.380Z,63.20
2019-03-29T20:37:35.544Z,73.80
2019-03-29T20:40:02.488Z,64.62
2019-03-29T20:45:15.591Z,89.25
2019-03-29T20:47:42.724Z,72.85
2019-03-29T20:51:08.757Z,74.95
2019-03-29T20:53:39.168Z,102.70
2019-03-29T20:56:06.693Z,72.10
2019-03-29T20:58:33.178Z,74.70
2019-03-29T21:01:01.352Z,64.15
2019-03-29T21:03:27.636Z,63.83
2019-03-29T21:05:54.022Z,55.80
2019-03-29T21:08:20.343Z,56.37
2019-03-29T21:10:55.577Z,51.23
2019-03-29T21:13:16.572Z,48.15
2019-03-29T21:15:44.659Z,46.00
2019-03-29T21:18:10.838Z,50.92
2019-03-29T21:20:37.118Z,69.25
2019-03-29T21:23:03.417Z,63.13
2019-03-29T21:25:29.559Z,64.45
2019-03-29T21:27:55.787Z,59.05
2019-03-29T21:30:25.871Z,59.25
2019-03-29T21:32:53.835Z,77.20
2019-03-29T21:35:20.104Z,72.55
2019-03-29T21:37:48.427Z,55.85
2019-03-29T21:40:15.220Z,57.30
2019-03-29T21:42:41.463Z,82.40
2019-03-29T21:45:08.270Z,103.35
2019-03-29T21:47:37.950Z,86.92
2019-03-29T21:50:09.213Z,96.05
2019-03-29T21:52:39.054Z,63.50
2019-03-29T21:55:05.818Z,68.78
2019-03-29T21:57:31.987Z,70.10
2019-03-29T21:59:58.186Z,66.22
2019-03-29T22:02:24.469Z,51.08
2019-03-29T22:04:50.684Z,42.83
2019-03-29T22:07:18.727Z,67.15
2019-03-29T22:09:44.900Z,84.13
2019-03-29T22:12:11.158Z,89.70
2019-03-29T22:14:37.284Z,74.62
2019-03-29T22:17:03.558Z,51.75
2019-03-29T22:19:29.725Z,59.25
2019-03-29T22:21:55.883Z,68.17
2019-03-29T22:24:22.047Z,62.23
2019-03-29T22:26:48.167Z,51.68
2019-03-29T22:29:14.201Z,37.30
2019-03-29T22:31:40.278Z,44.20
2019-03-29T22:34:06.427Z,64.80
2019-03-29T22:36:32.475Z,77.27
2019-03-29T22:38:58.597Z,69.37
2019-03-29T22:41:24.753Z,52.60
2019-03-29T22:43:50.890Z,46.55
2019-03-29T22:46:18.059Z,49.03
2019-03-29T22:48:52.084Z,42.48
2019-03-29T22:51:12.002Z,37.20
2019-03-29T22:53:38.130Z,36.83
2019-03-29T22:56:04.065Z,36.53
2019-03-29T22:58:30.089Z,32.40
2019-03-29T23:00:56.530Z,35.05
2019-03-29T23:03:22.691Z,32.67
2019-03-29T23:05:48.821Z,32.63
2019-03-29T23:08:14.944Z,37.75
2019-03-29T23:10:41.122Z,37.45
2019-03-29T23:13:07.237Z,37.05
2019-03-29T23:15:33.399Z,48.98
2019-03-29T23:17:59.522Z,62.67
2019-03-29T23:20:25.714Z,62.48
2019-03-29T23:22:51.843Z,42.50
2019-03-29T23:25:18.015Z,54.13
2019-03-29T23:27:44.046Z,39.03
2019-03-29T23:30:10.844Z,35.68
2019-03-29T23:32:36.984Z,38.35
2019-03-29T23:35:06.088Z,48.78
2019-03-29T23:37:32.259Z,51.25
2019-03-29T23:39:58.311Z,61.05
2019-03-29T23:42:24.474Z,46.60
2019-03-29T23:44:50.637Z,44.40
2019-03-29T23:47:16.655Z,33.85
2019-03-29T23:49:42.716Z,36.38
2019-03-29T23:52:08.832Z,37.33
2019-03-29T23:54:34.856Z,42.27
2019-03-29T23:57:00.994Z,43.00
2019-03-29T23:59:27.216Z,39.38
